Time;durP1;ratioP1;P1;durP2;ratioP2;P2;SDS_P1;SDS_P2;PMS_P1;PMS_P2;Temp;Humidity;BMP_temperature;BMP_pressure;BME280_temperature;BME280_humidity;BME280_pressure;Samples;Min_cycle;Max_cycle;Signal;HPM_P1;HPM_P2
2020/12/03 00:01:21;;;;;;;98.13;53.42;;;-1.40;1.00;;;;;;5041119;28;20226;-75
2020/12/03 00:03:50;;;;;;;97.60;55.53;;;-1.40;1.00;;;;;;5037891;28;20245;-76
2020/12/03 00:06:20;;;;;;;98.78;54.88;;;-1.40;1.00;;;;;;5037820;28;20222;-74
2020/12/03 00:08:50;;;;;;;100.00;54.88;;;-1.40;1.00;;;;;;5036053;28;20305;-74
2020/12/03 00:11:17;;;;;;;94.22;53.28;;;-1.40;1.00;;;;;;5037416;28;20246;-75
2020/12/03 00:13:43;;;;;;;87.85;52.13;;;-1.40;1.00;;;;;;5044651;28;20226;-75
2020/12/03 00:16:10;;;;;;;96.38;54.75;;;-1.40;1.00;;;;;;5048794;28;20245;-74
2020/12/03 00:18:38;;;;;;;90.55;54.60;;;-1.40;1.00;;;;;;5044692;28;20266;-74
2020/12/03 00:21:07;;;;;;;100.90;55.67;;;-1.30;1.00;;;;;;5042421;28;20222;-74
2020/12/03 00:23:35;;;;;;;93.57;54.05;;;-1.40;1.00;;;;;;5033570;28;20219;-73
2020/12/03 00:26:02;;;;;;;99.00;56.47;;;-1.30;1.00;;;;;;5037463;28;20222;-73
2020/12/03 00:28:30;;;;;;;91.75;52.40;;;-1.30;1.00;;;;;;5031515;28;20221;-74
2020/12/03 00:30:56;;;;;;;89.55;53.05;;;-1.30;1.00;;;;;;5043140;28;20793;-74
2020/12/03 00:33:23;;;;;;;91.20;55.40;;;-1.30;1.00;;;;;;5032308;28;20703;-75
2020/12/03 00:35:50;;;;;;;86.15;50.20;;;-1.30;1.00;;;;;;5033068;28;20225;-75
2020/12/03 00:38:17;;;;;;;93.68;53.63;;;-1.30;1.00;;;;;;5037636;28;20740;-74
2020/12/03 00:40:44;;;;;;;95.45;55.10;;;-1.30;1.00;;;;;;5027207;28;20341;-74
2020/12/03 00:43:10;;;;;;;97.18;53.70;;;-1.30;1.00;;;;;;5023792;28;20229;-74
2020/12/03 00:45:37;;;;;;;93.35;53.63;;;-1.30;1.00;;;;;;5030768;28;20234;-74
2020/12/03 00:48:04;;;;;;;91.82;53.80;;;-1.20;1.00;;;;;;5031690;28;20688;-75
2020/12/03 00:50:30;;;;;;;94.40;53.47;;;-1.30;1.00;;;;;;5012280;28;20325;-74
2020/12/03 00:52:56;;;;;;;95.68;54.72;;;-1.30;1.00;;;;;;5028096;28;20317;-75
2020/12/03 00:55:22;;;;;;;94.32;55.75;;;-1.40;1.00;;;;;;5027478;28;20226;-73
2020/12/03 00:57:49;;;;;;;92.50;54.55;;;-1.30;1.00;;;;;;5040164;28;20339;-76
2020/12/03 01:00:19;;;;;;;97.07;53.22;;;-1.30;1.00;;;;;;5032491;28;20285;-75
2020/12/03 01:02:46;;;;;;;92.15;55.50;;;-1.40;1.00;;;;;;5037864;28;20206;-75
2020/12/03 01:05:13;;;;;;;90.28;52.10;;;-1.40;1.00;;;;;;5040120;28;20218;-75
2020/12/03 01:07:40;;;;;;;93.03;52.40;;;-1.40;1.00;;;;;;5040070;28;20214;-73
2020/12/03 01:10:08;;;;;;;98.95;54.72;;;-1.50;1.00;;;;;;5038705;28;20285;-74
2020/12/03 01:12:35;;;;;;;93.53;54.67;;;-1.50;1.00;;;;;;5046524;28;21051;-73
2020/12/03 01:15:02;;;;;;;99.22;53.90;;;-1.50;1.00;;;;;;5044033;28;20375;-73
2020/12/03 01:17:28;;;;;;;104.63;57.47;;;-1.50;1.00;;;;;;5043971;28;20230;-74
2020/12/03 01:19:54;;;;;;;99.78;55.45;;;-1.50;1.00;;;;;;5047314;28;20230;-74
2020/12/03 01:22:21;;;;;;;99.80;55.60;;;-1.50;1.00;;;;;;5044544;28;20264;-73
2020/12/03 01:24:48;;;;;;;88.13;52.55;;;-1.50;1.00;;;;;;5025037;28;20250;-74
2020/12/03 01:27:14;;;;;;;96.45;56.45;;;-1.50;1.00;;;;;;5032095;28;20221;-74
2020/12/03 01:29:44;;;;;;;102.03;57.50;;;-1.50;1.00;;;;;;5039004;28;20251;-74
2020/12/03 01:32:12;;;;;;;102.60;57.75;;;-1.50;1.00;;;;;;5041450;28;20243;-74
2020/12/03 01:34:38;;;;;;;96.43;55.42;;;-1.50;1.00;;;;;;5044677;28;20661;-74
2020/12/03 01:37:04;;;;;;;106.93;59.97;;;-1.50;1.00;;;;;;5041273;28;20333;-73
2020/12/03 01:39:30;;;;;;;103.20;55.85;;;-1.50;1.00;;;;;;5044645;28;20699;-73
2020/12/03 01:41:57;;;;;;;95.78;54.25;;;-1.50;1.00;;;;;;5046284;28;20222;-73
2020/12/03 01:44:40;;;;;;;103.70;56.78;;;-1.60;1.00;;;;;;5028888;28;20214;-73
2020/12/03 01:47:12;;;;;;;108.22;56.28;;;-1.60;1.00;;;;;;5051964;28;20298;-73
2020/12/03 01:49:39;;;;;;;91.82;55.13;;;-1.60;1.00;;;;;;5048304;28;20236;-74
2020/12/03 01:52:06;;;;;;;101.55;57.90;;;-1.60;1.00;;;;;;5055551;28;20205;-74
2020/12/03 01:54:32;;;;;;;102.07;53.60;;;-1.60;1.00;;;;;;5045446;28;21068;-75
2020/12/03 01:57:29;;;;;;;101.28;56.60;;;-1.60;1.00;;;;;;5030952;28;20293;-74
2020/12/03 02:00:06;;;;;;;108.45;58.80;;;-1.50;1.00;;;;;;5035039;28;20242;-74
2020/12/03 02:02:33;;;;;;;99.00;56.17;;;-1.50;1.00;;;;;;5043465;28;20225;-73
2020/12/03 02:05:09;;;;;;;98.30;55.75;;;-1.40;1.00;;;;;;5045995;28;20241;-74
2020/12/03 02:07:35;;;;;;;103.60;55.80;;;-1.40;1.00;;;;;;5018674;28;20280;-73
2020/12/03 02:10:01;;;;;;;104.15;57.33;;;-1.40;1.00;;;;;;5046141;28;20226;-75
2020/12/03 02:12:28;;;;;;;100.30;54.83;;;-1.40;1.00;;;;;;5043823;28;20242;-74
2020/12/03 02:14:54;;;;;;;97.40;54.05;;;-1.40;1.00;;;;;;5046746;28;20238;-74
2020/12/03 02:17:20;;;;;;;98.70;55.63;;;-1.50;1.00;;;;;;5035509;28;20278;-74
2020/12/03 02:19:54;;;;;;;101.45;56.28;;;-1.50;1.00;;;;;;5041095;28;20233;-73
2020/12/03 02:22:20;;;;;;;103.05;55.63;;;-1.60;1.00;;;;;;5044242;28;20237;-73
2020/12/03 02:24:46;;;;;;;103.28;57.22;;;-1.60;1.00;;;;;;5043556;28;20308;-75
2020/12/03 02:27:14;;;;;;;98.20;57.05;;;-1.70;1.00;;;;;;5041146;28;20218;-73
2020/12/03 02:29:41;;;;;;;110.80;57.28;;;-1.70;1.00;;;;;;5040957;28;20309;-73
2020/12/03 02:32:07;;;;;;;95.85;56.53;;;-1.70;1.00;;;;;;5039916;28;20270;-74
2020/12/03 02:34:34;;;;;;;108.55;59.35;;;-1.70;1.00;;;;;;5033940;28;20717;-74
2020/12/03 02:37:02;;;;;;;96.57;57.42;;;-1.70;1.00;;;;;;5015555;28;20725;-74
2020/12/03 02:39:31;;;;;;;108.47;57.60;;;-1.70;1.00;;;;;;5033048;28;20610;-74
2020/12/03 02:41:58;;;;;;;107.13;59.97;;;-1.70;1.00;;;;;;5027647;28;20266;-74
2020/12/03 02:44:24;;;;;;;99.85;56.65;;;-1.60;1.00;;;;;;5029394;28;21010;-74
2020/12/03 02:46:50;;;;;;;112.95;62.20;;;-1.60;1.00;;;;;;5029744;28;20255;-73
2020/12/03 02:49:17;;;;;;;110.97;64.50;;;-1.60;1.00;;;;;;5036554;28;20348;-73
2020/12/03 02:51:44;;;;;;;117.22;60.90;;;-1.60;1.00;;;;;;5039948;28;20281;-74
2020/12/03 02:54:14;;;;;;;106.90;57.85;;;-1.60;1.00;;;;;;5035245;28;20788;-74
2020/12/03 02:56:40;;;;;;;107.45;58.38;;;-1.60;1.00;;;;;;5037284;28;20258;-74
2020/12/03 02:59:08;;;;;;;109.97;61.72;;;-1.60;1.00;;;;;;5042046;28;20252;-74
2020/12/03 03:01:34;;;;;;;110.80;58.83;;;-1.60;1.00;;;;;;5033659;28;20242;-74
2020/12/03 03:04:03;;;;;;;100.80;60.03;;;-1.50;1.00;;;;;;5034547;28;20226;-73
2020/12/03 03:06:29;;;;;;;99.15;57.58;;;-1.50;1.00;;;;;;5026660;28;20233;-73
2020/12/03 03:08:55;;;;;;;103.95;60.78;;;-1.50;1.00;;;;;;5039621;28;20236;-74
2020/12/03 03:11:22;;;;;;;98.88;56.08;;;-1.40;1.00;;;;;;5048324;28;20253;-73
2020/12/03 03:13:48;;;;;;;107.05;61.67;;;-1.40;1.00;;;;;;5034758;28;20864;-74
2020/12/03 03:16:15;;;;;;;110.90;60.30;;;-1.50;1.00;;;;;;5031517;28;20293;-74
2020/12/03 03:18:41;;;;;;;106.57;60.50;;;-1.50;1.00;;;;;;5029083;28;20285;-74
2020/12/03 03:21:07;;;;;;;121.38;60.95;;;-1.60;1.00;;;;;;5030080;28;20268;-74
2020/12/03 03:23:33;;;;;;;109.68;62.15;;;-1.60;1.00;;;;;;5031816;28;20214;-74
2020/12/03 03:25:59;;;;;;;109.50;63.53;;;-1.60;1.00;;;;;;5028881;28;20218;-74
2020/12/03 03:28:27;;;;;;;112.95;63.13;;;-1.60;1.00;;;;;;5025321;28;20218;-74
2020/12/03 03:30:53;;;;;;;115.57;64.57;;;-1.60;1.00;;;;;;5013160;28;20222;-74
2020/12/03 03:33:19;;;;;;;108.78;62.17;;;-1.60;1.00;;;;;;5045778;28;20225;-73
2020/12/03 03:35:47;;;;;;;109.57;60.45;;;-1.60;1.00;;;;;;5042146;28;20222;-74
2020/12/03 03:38:13;;;;;;;115.55;63.53;;;-1.60;1.00;;;;;;5045121;28;20264;-74
2020/12/03 03:40:39;;;;;;;117.53;63.70;;;-1.60;1.00;;;;;;5039176;28;20238;-74
2020/12/03 03:43:06;;;;;;;117.40;64.60;;;-1.60;1.00;;;;;;5029888;28;20278;-74
2020/12/03 03:45:33;;;;;;;112.80;60.85;;;-1.60;1.00;;;;;;5034031;28;20230;-74
2020/12/03 03:47:59;;;;;;;118.70;61.72;;;-1.60;1.00;;;;;;5035995;28;20276;-74
2020/12/03 03:50:26;;;;;;;123.65;62.95;;;-1.60;1.00;;;;;;5039161;28;20322;-74
2020/12/03 03:52:52;;;;;;;113.38;63.70;;;-1.60;1.00;;;;;;5044360;28;20226;-74
2020/12/03 03:55:18;;;;;;;112.70;63.03;;;-1.60;1.00;;;;;;5042367;28;20291;-74
2020/12/03 03:57:44;;;;;;;117.63;65.10;;;-1.60;1.00;;;;;;5022659;28;20841;-74
2020/12/03 04:00:10;;;;;;;113.97;62.25;;;-1.60;1.00;;;;;;5028620;28;20232;-73
2020/12/03 04:02:37;;;;;;;111.90;62.63;;;-1.60;1.00;;;;;;5033252;28;20319;-73
2020/12/03 04:05:05;;;;;;;117.68;64.28;;;-1.50;1.00;;;;;;5010227;28;20226;-74
2020/12/03 04:07:31;;;;;;;122.72;65.25;;;-1.50;1.00;;;;;;5032708;28;20241;-74
2020/12/03 04:09:57;;;;;;;120.13;64.38;;;-1.50;1.00;;;;;;5030315;28;21007;-73
2020/12/03 04:12:23;;;;;;;110.65;62.55;;;-1.60;1.00;;;;;;5034217;28;21065;-73
2020/12/03 04:14:50;;;;;;;111.55;65.22;;;-1.60;1.00;;;;;;5012668;28;20233;-73
2020/12/03 04:17:16;;;;;;;110.25;65.50;;;-1.60;1.00;;;;;;5032565;28;20226;-74
2020/12/03 04:19:43;;;;;;;126.55;65.80;;;-1.60;1.00;;;;;;5026835;28;20232;-74
2020/12/03 04:22:09;;;;;;;120.10;65.03;;;-1.60;1.00;;;;;;5031221;28;20714;-74
2020/12/03 04:24:35;;;;;;;103.57;61.65;;;-1.60;1.00;;;;;;5030112;28;20260;-73
2020/12/03 04:27:01;;;;;;;111.65;64.82;;;-1.60;1.00;;;;;;5030693;28;21087;-72
2020/12/03 04:29:27;;;;;;;118.28;65.60;;;-1.60;1.00;;;;;;5026319;28;20268;-73
2020/12/03 04:31:54;;;;;;;114.95;64.82;;;-1.50;1.00;;;;;;5033209;28;20293;-73
2020/12/03 04:34:20;;;;;;;115.85;63.65;;;-1.50;1.00;;;;;;5024034;28;20233;-73
2020/12/03 04:36:47;;;;;;;114.45;64.07;;;-1.50;1.00;;;;;;5028532;28;20727;-74
2020/12/03 04:39:13;;;;;;;124.50;66.65;;;-1.50;1.00;;;;;;5024443;28;20305;-73
2020/12/03 04:41:39;;;;;;;116.47;65.97;;;-1.40;1.00;;;;;;5027967;28;20226;-74
2020/12/03 04:44:15;;;;;;;117.93;65.28;;;-1.40;1.00;;;;;;5025898;28;20222;-74
2020/12/03 04:46:49;;;;;;;107.53;62.35;;;-1.40;1.00;;;;;;5032002;28;20272;-74
2020/12/03 04:49:26;;;;;;;120.05;65.03;;;-1.30;1.00;;;;;;5029809;28;20230;-75
2020/12/03 04:52:30;;;;;;;137.00;74.15;;;-1.30;1.00;;;;;;5029714;28;20222;-75
2020/12/03 04:55:17;;;;;;;110.70;64.10;;;-1.30;1.00;;;;;;5029582;28;20221;-73
2020/12/03 04:57:49;;;;;;;109.35;61.38;;;-1.30;1.00;;;;;;5034171;28;20758;-74
2020/12/03 05:00:28;;;;;;;115.85;63.28;;;-1.30;1.00;;;;;;5025847;28;21038;-74
2020/12/03 05:03:33;;;;;;;116.15;67.57;;;-1.30;1.00;;;;;;5025752;28;20321;-75
2020/12/03 05:06:20;;;;;;;127.30;63.08;;;-1.30;1.00;;;;;;5027586;28;20229;-74
2020/12/03 05:08:56;;;;;;;112.85;58.70;;;-1.20;1.00;;;;;;5028885;28;20288;-75
2020/12/03 05:11:29;;;;;;;118.35;62.17;;;-1.20;1.00;;;;;;5027756;28;20229;-73
2020/12/03 05:14:01;;;;;;;114.85;60.47;;;-1.20;1.00;;;;;;5025465;28;20226;-74
2020/12/03 05:16:38;;;;;;;115.78;60.80;;;-1.20;1.00;;;;;;5032627;28;21164;-75
2020/12/03 05:19:14;;;;;;;114.47;64.10;;;-1.20;1.00;;;;;;5033855;28;20246;-75
2020/12/03 05:21:43;;;;;;;115.93;62.60;;;-1.20;1.00;;;;;;5033207;28;20378;-75
2020/12/03 05:24:11;;;;;;;107.57;57.03;;;-1.10;1.00;;;;;;5036821;28;20306;-76
2020/12/03 05:26:37;;;;;;;109.97;61.60;;;-1.10;1.00;;;;;;5033941;28;20230;-73
2020/12/03 05:29:06;;;;;;;122.10;61.83;;;-1.10;1.00;;;;;;5031823;28;20222;-74
2020/12/03 05:31:35;;;;;;;105.13;60.30;;;-1.00;1.00;;;;;;5034641;28;20265;-73
2020/12/03 05:34:06;;;;;;;106.53;61.25;;;-1.00;1.00;;;;;;5038263;28;20229;-74
2020/12/03 05:36:34;;;;;;;106.78;58.90;;;-1.00;1.00;;;;;;5042033;28;20234;-73
2020/12/03 05:39:04;;;;;;;103.55;59.03;;;-1.00;1.00;;;;;;5037859;28;20227;-73
2020/12/03 05:41:36;;;;;;;104.93;59.72;;;-1.00;1.00;;;;;;5048454;28;22788;-73
2020/12/03 05:44:22;;;;;;;108.20;61.28;;;-1.00;1.00;;;;;;5037200;28;20346;-73
2020/12/03 05:46:51;;;;;;;98.78;60.95;;;-0.90;1.00;;;;;;5041367;28;20258;-72
2020/12/03 05:49:21;;;;;;;106.70;58.17;;;-0.90;1.00;;;;;;5041488;28;20230;-72
2020/12/03 05:52:03;;;;;;;109.40;60.70;;;-0.90;1.00;;;;;;5039813;28;20329;-72
2020/12/03 05:54:29;;;;;;;113.45;59.90;;;-0.90;1.00;;;;;;5028966;28;20226;-74
2020/12/03 05:56:56;;;;;;;113.95;57.45;;;-0.80;1.00;;;;;;5023710;28;20239;-74
2020/12/03 05:59:25;;;;;;;115.32;61.17;;;-0.90;1.00;;;;;;5025063;28;20315;-73
2020/12/03 06:02:00;;;;;;;110.07;61.60;;;-0.90;1.00;;;;;;5023916;28;20296;-73
2020/12/03 06:04:34;;;;;;;93.75;57.72;;;-0.80;1.00;;;;;;5029344;28;20254;-73
2020/12/03 06:07:29;;;;;;;124.05;69.78;;;-0.80;1.00;;;;;;5025884;28;20757;-73
2020/12/03 06:10:21;;;;;;;102.03;59.15;;;-0.80;1.00;;;;;;5024455;28;20308;-73
2020/12/03 06:13:05;;;;;;;113.75;56.55;;;-0.80;1.00;;;;;;4997485;28;20325;-77
2020/12/03 06:15:38;;;;;;;107.80;57.10;;;-0.80;1.00;;;;;;5028530;28;20226;-76
2020/12/03 06:18:29;;;;;;;102.53;59.20;;;-0.70;1.00;;;;;;5024759;28;20316;-72
2020/12/03 06:21:07;;;;;;;106.05;56.53;;;-0.70;1.00;;;;;;5031918;28;20298;-74
2020/12/03 06:23:51;;;;;;;99.35;54.35;;;-0.70;1.00;;;;;;5025337;28;20231;-73
2020/12/03 06:26:40;;;;;;;102.22;58.35;;;-0.80;1.00;;;;;;5036885;28;20279;-74
2020/12/03 06:29:35;;;;;;;104.05;58.00;;;-0.80;1.00;;;;;;5022610;28;20229;-75
2020/12/03 06:32:25;;;;;;;107.45;57.83;;;-0.80;1.00;;;;;;5049284;28;20230;-75
2020/12/03 06:34:58;;;;;;;99.93;52.92;;;-0.60;1.00;;;;;;5034815;28;20725;-76
2020/12/03 06:37:30;;;;;;;102.47;56.17;;;-0.60;1.00;;;;;;5026160;28;20225;-73
2020/12/03 06:40:02;;;;;;;105.35;58.00;;;-0.60;1.00;;;;;;5023267;28;20306;-73
2020/12/03 06:42:34;;;;;;;115.18;58.17;;;-0.70;1.00;;;;;;5010949;28;20261;-74
2020/12/03 06:45:21;;;;;;;108.15;60.58;;;-0.70;1.00;;;;;;5031764;28;20229;-75
2020/12/03 06:48:09;;;;;;;98.05;53.80;;;-0.70;1.00;;;;;;5030306;28;20218;-75
2020/12/03 06:50:53;;;;;;;102.07;51.85;;;-0.60;1.00;;;;;;5033054;28;20793;-73
2020/12/03 06:53:44;;;;;;;105.68;56.55;;;-0.60;1.00;;;;;;5030771;28;20222;-73
2020/12/03 06:56:33;;;;;;;96.47;55.28;;;-0.70;1.00;;;;;;5033929;28;20262;-73
2020/12/03 06:59:27;;;;;;;104.55;58.55;;;-0.70;1.00;;;;;;5031171;28;20222;-74
2020/12/03 07:02:34;;;;;;;103.10;54.60;;;-0.80;1.00;;;;;;5017055;28;20348;-72
2020/12/03 07:05:14;;;;;;;101.88;54.95;;;-0.80;1.00;;;;;;5025229;28;20238;-73
2020/12/03 07:08:07;;;;;;;100.80;55.00;;;-0.80;1.00;;;;;;5033761;28;20284;-73
2020/12/03 07:11:02;;;;;;;101.93;56.58;;;-0.90;1.00;;;;;;5032560;28;20238;-73
2020/12/03 07:14:11;;;;;;;102.55;56.72;;;-0.90;1.00;;;;;;5030712;28;20234;-74
2020/12/03 07:17:14;;;;;;;98.47;54.53;;;-0.80;1.00;;;;;;5024643;28;20222;-76
2020/12/03 07:20:04;;;;;;;97.35;56.30;;;-0.70;1.00;;;;;;5022784;28;20782;-75
2020/12/03 07:22:34;;;;;;;92.32;51.97;;;-0.60;1.00;;;;;;5023511;28;20242;-74
2020/12/03 07:25:01;;;;;;;98.95;52.53;;;-0.60;1.00;;;;;;5024787;28;20237;-73
2020/12/03 07:27:51;;;;;;;104.03;62.58;;;-0.60;1.00;;;;;;5023828;28;20226;-73
2020/12/03 07:30:40;;;;;;;93.72;55.10;;;-0.50;1.00;;;;;;5028594;28;21190;-73
2020/12/03 07:33:16;;;;;;;99.00;52.92;;;-0.50;1.00;;;;;;5023596;28;20337;-75
2020/12/03 07:35:50;;;;;;;90.55;52.25;;;-0.50;1.00;;;;;;5022694;28;20314;-73
2020/12/03 07:38:28;;;;;;;93.68;54.20;;;-0.60;1.00;;;;;;5011701;28;20309;-73
2020/12/03 07:40:56;;;;;;;92.93;51.97;;;-0.60;1.00;;;;;;5039098;28;20288;-73
2020/12/03 07:43:26;;;;;;;102.95;54.45;;;-0.50;1.00;;;;;;5043597;28;20210;-73
2020/12/03 07:45:53;;;;;;;80.25;50.33;;;-0.60;1.00;;;;;;5044221;28;20341;-73
2020/12/03 07:48:24;;;;;;;94.20;54.92;;;-0.60;1.00;;;;;;5036091;28;20221;-74
2020/12/03 07:51:08;;;;;;;99.20;58.40;;;-0.50;1.00;;;;;;5031408;28;20602;-75
2020/12/03 07:53:35;;;;;;;96.65;53.70;;;-0.20;1.00;;;;;;5014281;28;20301;-76
2020/12/03 07:56:32;;;;;;;86.85;52.03;;;-0.20;1.00;;;;;;5016738;28;20321;-76
2020/12/03 07:59:31;;;;;;;99.32;52.17;;;-0.20;1.00;;;;;;5031118;28;20320;-74
2020/12/03 08:01:59;;;;;;;94.18;50.75;;;-0.30;1.00;;;;;;5025080;28;20253;-74
2020/12/03 08:04:34;;;;;;;85.75;50.10;;;-0.40;1.00;;;;;;5031309;28;20643;-75
2020/12/03 08:07:33;;;;;;;86.10;48.35;;;-0.40;1.00;;;;;;5031726;28;20361;-76
2020/12/03 08:09:59;;;;;;;83.10;50.75;;;-0.40;1.00;;;;;;5030721;28;20222;-75
2020/12/03 08:12:28;;;;;;;82.95;47.47;;;-0.30;1.00;;;;;;5007633;28;20236;-75
2020/12/03 08:14:55;;;;;;;84.72;49.97;;;-0.30;1.00;;;;;;5033135;28;20221;-74
2020/12/03 08:17:43;;;;;;;81.20;49.45;;;-0.30;1.00;;;;;;5038282;28;20234;-75
2020/12/03 08:20:42;;;;;;;86.38;48.78;;;-0.30;1.00;;;;;;5027963;28;20316;-74
2020/12/03 08:23:13;;;;;;;80.32;48.55;;;-0.30;1.00;;;;;;5013975;28;20238;-74
2020/12/03 08:25:44;;;;;;;83.72;55.13;;;-0.30;1.00;;;;;;5027201;28;20420;-74
2020/12/03 08:28:19;;;;;;;85.18;49.47;;;-0.30;1.00;;;;;;5030179;28;20232;-74
2020/12/03 08:30:50;;;;;;;91.75;49.65;;;-0.30;1.00;;;;;;5030757;28;20221;-74
2020/12/03 08:33:24;;;;;;;75.80;45.50;;;-0.30;1.00;;;;;;5031352;28;20234;-73
2020/12/03 08:35:52;;;;;;;76.38;44.85;;;-0.20;1.00;;;;;;5031753;28;20225;-75
2020/12/03 08:38:20;;;;;;;75.97;46.85;;;-0.20;1.00;;;;;;5035836;28;20223;-76
2020/12/03 08:40:48;;;;;;;73.07;47.30;;;-0.20;1.00;;;;;;5019325;28;20329;-76
2020/12/03 08:43:17;;;;;;;70.38;45.92;;;-0.30;1.00;;;;;;5027013;28;20253;-75
2020/12/03 08:45:50;;;;;;;80.57;44.60;;;-0.30;1.00;;;;;;5027928;28;20226;-77
2020/12/03 08:48:23;;;;;;;90.07;48.50;;;-0.30;1.00;;;;;;5025636;28;20226;-76
2020/12/03 08:50:58;;;;;;;66.72;43.70;;;-0.20;1.00;;;;;;5037071;28;20799;-75
2020/12/03 08:53:26;;;;;;;68.80;44.17;;;-0.10;1.00;;;;;;5029495;28;20234;-76
2020/12/03 08:55:52;;;;;;;74.93;44.13;;;-0.10;1.00;;;;;;5027408;28;20846;-74
2020/12/03 08:58:22;;;;;;;74.13;44.85;;;-0.20;1.00;;;;;;5032616;28;22061;-73
2020/12/03 09:00:51;;;;;;;70.28;44.25;;;-0.30;1.00;;;;;;5026206;28;20226;-75
2020/12/03 09:03:20;;;;;;;78.10;44.50;;;-0.30;1.00;;;;;;5038731;28;20702;-73
2020/12/03 09:05:51;;;;;;;75.88;46.97;;;-0.20;1.00;;;;;;5046375;28;20227;-75
2020/12/03 09:08:19;;;;;;;77.72;45.88;;;-0.20;1.00;;;;;;5050105;28;20262;-77
2020/12/03 09:10:48;;;;;;;78.38;43.80;;;-0.20;1.00;;;;;;5045651;28;20230;-73
2020/12/03 09:13:17;;;;;;;82.38;46.55;;;0.00;1.00;;;;;;5044693;28;20225;-74
2020/12/03 09:15:47;;;;;;;91.75;48.00;;;0.00;1.00;;;;;;5040497;28;20612;-75
2020/12/03 09:18:14;;;;;;;76.20;43.72;;;-0.10;1.00;;;;;;5035821;28;20280;-74
2020/12/03 09:20:44;;;;;;;74.45;44.80;;;-0.10;1.00;;;;;;5026378;28;20230;-76
2020/12/03 09:23:31;;;;;;;70.32;44.13;;;0.00;1.00;;;;;;5027840;28;20237;-78
2020/12/03 09:25:58;;;;;;;75.38;44.33;;;0.10;1.00;;;;;;5011647;28;21017;-76
2020/12/03 09:28:24;;;;;;;68.55;41.83;;;0.10;1.00;;;;;;5026371;28;20277;-74
2020/12/03 09:30:52;;;;;;;77.47;45.33;;;0.10;1.00;;;;;;5014338;28;20265;-75
2020/12/03 09:33:22;;;;;;;67.53;43.13;;;0.10;1.00;;;;;;5029026;28;20223;-75
2020/12/03 09:35:51;;;;;;;75.53;42.53;;;0.10;1.00;;;;;;5030676;28;20284;-75
2020/12/03 09:38:19;;;;;;;73.55;43.67;;;0.10;1.00;;;;;;5039728;28;20302;-75
2020/12/03 09:40:48;;;;;;;81.53;44.88;;;0.20;1.00;;;;;;5035480;28;20336;-74
2020/12/03 09:43:18;;;;;;;67.63;45.65;;;0.10;1.00;;;;;;5038819;28;20226;-75
2020/12/03 09:45:49;;;;;;;64.80;39.60;;;0.10;1.00;;;;;;5041220;28;20218;-74
2020/12/03 09:48:17;;;;;;;73.90;41.30;;;0.20;1.00;;;;;;5045690;28;20214;-75
2020/12/03 09:50:45;;;;;;;63.95;39.05;;;0.20;1.00;;;;;;5045429;28;20214;-76
2020/12/03 09:53:17;;;;;;;71.45;42.38;;;0.20;1.00;;;;;;5052061;28;20734;-78
2020/12/03 09:55:43;;;;;;;71.97;40.30;;;0.30;1.00;;;;;;5053401;28;20281;-76
2020/12/03 09:58:10;;;;;;;68.85;40.92;;;0.40;1.00;;;;;;5033693;28;20309;-77
2020/12/03 10:00:39;;;;;;;68.70;43.20;;;0.40;1.00;;;;;;5038129;28;20218;-76
2020/12/03 10:03:37;;;;;;;63.83;39.63;;;0.50;1.00;;;;;;5042957;28;20237;-76
2020/12/03 10:06:08;;;;;;;66.78;38.75;;;0.60;1.00;;;;;;5036468;28;20683;-79
2020/12/03 10:09:05;;;;;;;63.30;40.30;;;0.60;1.00;;;;;;5036807;28;20311;-74
2020/12/03 10:11:47;;;;;;;63.20;39.00;;;0.60;1.00;;;;;;5039470;28;20289;-78
2020/12/03 10:14:42;;;;;;;63.35;37.67;;;0.60;1.00;;;;;;5034926;28;20218;-75
2020/12/03 10:17:16;;;;;;;63.67;40.10;;;0.70;1.00;;;;;;5019911;28;20234;-75
2020/12/03 10:19:44;;;;;;;70.70;38.13;;;0.70;1.00;;;;;;5036947;28;20225;-75
2020/12/03 10:22:22;;;;;;;68.25;40.83;;;0.70;1.00;;;;;;5039842;28;20234;-76
2020/12/03 10:24:55;;;;;;;59.00;37.00;;;0.60;1.00;;;;;;5042980;28;20215;-76
2020/12/03 10:27:25;;;;;;;57.30;39.28;;;0.60;1.00;;;;;;5042767;28;20233;-76
2020/12/03 10:30:01;;;;;;;68.68;39.08;;;0.70;1.00;;;;;;5050314;28;20218;-76
2020/12/03 10:32:30;;;;;;;55.45;37.50;;;0.80;1.00;;;;;;5045857;28;20230;-75
2020/12/03 10:34:58;;;;;;;69.95;40.03;;;0.90;1.00;;;;;;5017023;28;20236;-77
2020/12/03 10:37:32;;;;;;;61.90;40.25;;;1.00;1.00;;;;;;5036005;28;20218;-76
2020/12/03 10:40:02;;;;;;;58.63;36.67;;;1.10;1.00;;;;;;5033320;28;20226;-77
2020/12/03 10:42:34;;;;;;;54.85;37.35;;;1.10;1.00;;;;;;5040341;28;20336;-75
2020/12/03 10:45:06;;;;;;;62.75;38.67;;;0.90;1.00;;;;;;5037031;28;20218;-76
2020/12/03 10:47:44;;;;;;;65.00;39.28;;;0.90;1.00;;;;;;5025563;28;20718;-75
2020/12/03 10:50:16;;;;;;;61.55;37.13;;;1.00;1.00;;;;;;5032270;28;20226;-76
2020/12/03 10:52:44;;;;;;;57.53;37.65;;;1.00;1.00;;;;;;5027924;28;20752;-75
2020/12/03 10:55:16;;;;;;;58.25;37.30;;;0.90;1.00;;;;;;5034273;28;20230;-75
2020/12/03 10:57:49;;;;;;;66.03;37.83;;;0.80;1.00;;;;;;5017352;28;20224;-76
2020/12/03 11:00:20;;;;;;;59.55;37.80;;;0.90;1.00;;;;;;5031957;28;20321;-76
2020/12/03 11:02:49;;;;;;;61.72;35.92;;;0.90;1.00;;;;;;5033051;28;20248;-75
2020/12/03 11:05:16;;;;;;;53.30;35.58;;;1.00;1.00;;;;;;5031057;28;20222;-75
2020/12/03 11:07:52;;;;;;;59.08;35.58;;;0.90;1.00;;;;;;5032306;28;20226;-76
2020/12/03 11:10:19;;;;;;;56.03;37.35;;;0.90;1.00;;;;;;5032653;28;20781;-76
2020/12/03 11:12:47;;;;;;;66.85;39.67;;;0.80;1.00;;;;;;5019854;28;20280;-74
2020/12/03 11:15:13;;;;;;;50.72;35.65;;;0.80;1.00;;;;;;5038410;28;20269;-76
2020/12/03 11:18:04;;;;;;;60.00;36.35;;;0.80;1.00;;;;;;5044261;28;20298;-74
2020/12/03 11:20:32;;;;;;;56.97;36.42;;;0.80;1.00;;;;;;5042685;28;20273;-76
2020/12/03 11:23:04;;;;;;;58.92;33.97;;;0.90;1.00;;;;;;5033611;28;20718;-74
2020/12/03 11:25:30;;;;;;;62.15;35.17;;;1.00;1.00;;;;;;5035077;28;20227;-74
2020/12/03 11:28:00;;;;;;;55.03;37.17;;;1.10;1.00;;;;;;5029621;28;20221;-73
2020/12/03 11:30:29;;;;;;;56.72;36.38;;;1.10;1.00;;;;;;5029852;28;20284;-74
2020/12/03 11:32:56;;;;;;;56.95;36.92;;;1.10;1.00;;;;;;5032376;28;20222;-74
2020/12/03 11:35:28;;;;;;;51.08;34.50;;;1.00;1.00;;;;;;5039851;28;20290;-74
2020/12/03 11:37:55;;;;;;;58.85;35.92;;;1.00;1.00;;;;;;5032419;28;20218;-74
2020/12/03 11:40:28;;;;;;;57.70;36.47;;;1.10;1.00;;;;;;5035892;28;20277;-74
2020/12/03 11:43:00;;;;;;;53.25;34.05;;;1.20;1.00;;;;;;5033785;28;20300;-75
2020/12/03 11:48:25;;;;;;;52.15;32.53;;;1.50;1.00;;;;;;5029364;28;20234;-73
2020/12/03 11:50:52;;;;;;;56.40;36.08;;;1.60;1.00;;;;;;5032195;28;20229;-74
2020/12/03 11:53:19;;;;;;;50.70;34.45;;;1.40;1.00;;;;;;5021466;28;21463;-73
2020/12/03 11:55:45;;;;;;;49.85;33.25;;;1.30;1.00;;;;;;5022735;28;20292;-75
2020/12/03 11:58:12;;;;;;;54.05;33.17;;;1.30;1.00;;;;;;5015959;28;20230;-75
2020/12/03 12:00:38;;;;;;;53.35;34.00;;;1.30;1.00;;;;;;5017752;28;20293;-74
2020/12/03 12:03:07;;;;;;;56.92;34.05;;;1.30;1.00;;;;;;5027704;28;20230;-73
2020/12/03 12:05:45;;;;;;;60.03;33.80;;;1.20;1.00;;;;;;5020941;28;20790;-73
2020/12/03 12:08:24;;;;;;;48.88;33.03;;;1.30;1.00;;;;;;5020856;28;20214;-74
2020/12/03 12:10:53;;;;;;;47.13;30.75;;;1.30;1.00;;;;;;5024798;28;20218;-74
2020/12/03 12:13:20;;;;;;;60.55;36.00;;;1.30;1.00;;;;;;5003094;28;20416;-74
2020/12/03 12:15:46;;;;;;;50.53;32.00;;;1.20;1.00;;;;;;5020713;28;20218;-76
2020/12/03 12:18:13;;;;;;;58.20;34.22;;;1.30;1.00;;;;;;5021017;28;20221;-73
2020/12/03 12:20:40;;;;;;;45.80;31.15;;;1.40;1.00;;;;;;5023197;28;20986;-72
2020/12/03 12:23:06;;;;;;;47.17;32.75;;;1.40;1.00;;;;;;5022225;28;20233;-74
2020/12/03 12:25:33;;;;;;;52.95;34.05;;;1.40;1.00;;;;;;5031761;28;20241;-73
2020/12/03 12:28:00;;;;;;;53.90;32.30;;;1.50;1.00;;;;;;5029700;28;20416;-72
2020/12/03 12:30:26;;;;;;;48.40;31.20;;;1.60;1.00;;;;;;5036938;28;20705;-71
2020/12/03 12:32:52;;;;;;;43.95;29.70;;;1.60;1.00;;;;;;5018988;28;20316;-73
2020/12/03 12:35:19;;;;;;;43.10;27.80;;;1.70;1.00;;;;;;5010941;28;20230;-73
2020/12/03 12:37:45;;;;;;;44.05;29.27;;;1.60;1.00;;;;;;5024619;28;20214;-73
2020/12/03 12:40:11;;;;;;;47.72;28.10;;;1.60;1.00;;;;;;5020306;28;20557;-72
2020/12/03 12:42:39;;;;;;;42.78;27.75;;;1.60;1.00;;;;;;5020408;28;20229;-71
2020/12/03 12:45:05;;;;;;;44.53;29.63;;;1.60;1.00;;;;;;5002833;28;20276;-73
2020/12/03 12:47:32;;;;;;;43.65;29.38;;;1.60;1.00;;;;;;5004561;28;20258;-74
2020/12/03 12:49:58;;;;;;;40.60;28.48;;;1.60;1.00;;;;;;5022993;28;20218;-74
2020/12/03 12:52:24;;;;;;;47.38;29.80;;;1.50;1.00;;;;;;5027936;28;20218;-72
2020/12/03 12:54:51;;;;;;;44.60;29.23;;;1.50;1.00;;;;;;5019778;28;20254;-71
2020/12/03 12:57:17;;;;;;;42.92;28.63;;;1.50;1.00;;;;;;5021032;28;20222;-73
2020/12/03 12:59:44;;;;;;;44.17;30.30;;;1.60;1.00;;;;;;5022799;28;20257;-73
2020/12/03 13:02:10;;;;;;;45.38;29.42;;;1.60;1.00;;;;;;5020171;28;20226;-72